sensor_id;sensor_type;location;lat;lon;timestamp;P1;durP1;ratioP1;P2;durP2;ratioP2
4821;SDS011;2425;47.794;13.068;2022-08-19T00:00:34;2.20;;;2.20;;
4821;SDS011;2425;47.794;13.068;2022-08-19T00:03:02;1.93;;;1.93;;
4821;SDS011;2425;47.794;13.068;2022-08-19T00:05:29;2.30;;;2.20;;
4821;SDS011;2425;47.794;13.068;2022-08-19T00:07:56;2.40;;;2.30;;
4821;SDS011;2425;47.794;13.068;2022-08-19T00:10:23;2.60;;;2.40;;
4821;SDS011;2425;47.794;13.068;2022-08-19T00:12:50;2.03;;;1.93;;
4821;SDS011;2425;47.794;13.068;2022-08-19T00:15:18;2.70;;;2.50;;
4821;SDS011;2425;47.794;13.068;2022-08-19T00:17:46;1.83;;;1.83;;
4821;SDS011;2425;47.794;13.068;2022-08-19T00:20:16;2.60;;;2.50;;
4821;SDS011;2425;47.794;13.068;2022-08-19T00:22:45;2.30;;;2.20;;
4821;SDS011;2425;47.794;13.068;2022-08-19T00:25:12;2.13;;;2.03;;
4821;SDS011;2425;47.794;13.068;2022-08-19T00:27:43;2.33;;;2.23;;
4821;SDS011;2425;47.794;13.068;2022-08-19T00:30:33;2.40;;;2.30;;
4821;SDS011;2425;47.794;13.068;2022-08-19T00:33:13;2.13;;;2.03;;
4821;SDS011;2425;47.794;13.068;2022-08-19T00:35:49;2.20;;;2.10;;
4821;SDS011;2425;47.794;13.068;2022-08-19T00:38:15;2.20;;;2.20;;
4821;SDS011;2425;47.794;13.068;2022-08-19T00:40:42;2.50;;;2.40;;
4821;SDS011;2425;47.794;13.068;2022-08-19T00:43:11;2.40;;;2.30;;
4821;SDS011;2425;47.794;13.068;2022-08-19T00:45:39;2.63;;;2.53;;
4821;SDS011;2425;47.794;13.068;2022-08-19T00:48:08;2.33;;;2.13;;
4821;SDS011;2425;47.794;13.068;2022-08-19T00:50:35;2.10;;;2.10;;
4821;SDS011;2425;47.794;13.068;2022-08-19T00:53:03;1.83;;;1.83;;
4821;SDS011;2425;47.794;13.068;2022-08-19T00:55:31;1.97;;;1.97;;
4821;SDS011;2425;47.794;13.068;2022-08-19T00:58:00;2.27;;;2.17;;
4821;SDS011;2425;47.794;13.068;2022-08-19T01:00:29;2.33;;;2.23;;
4821;SDS011;2425;47.794;13.068;2022-08-19T01:02:56;2.50;;;2.40;;
4821;SDS011;2425;47.794;13.068;2022-08-19T01:05:24;2.20;;;2.20;;
4821;SDS011;2425;47.794;13.068;2022-08-19T01:07:53;2.53;;;2.33;;
4821;SDS011;2425;47.794;13.068;2022-08-19T01:10:24;2.20;;;2.10;;
4821;SDS011;2425;47.794;13.068;2022-08-19T01:12:52;2.47;;;2.37;;
4821;SDS011;2425;47.794;13.068;2022-08-19T01:15:20;2.13;;;2.03;;
4821;SDS011;2425;47.794;13.068;2022-08-19T01:17:49;2.20;;;2.10;;
4821;SDS011;2425;47.794;13.068;2022-08-19T01:20:18;2.13;;;2.13;;
4821;SDS011;2425;47.794;13.068;2022-08-19T01:22:48;1.90;;;1.90;;
4821;SDS011;2425;47.794;13.068;2022-08-19T01:25:17;2.30;;;2.20;;
4821;SDS011;2425;47.794;13.068;2022-08-19T01:27:46;2.33;;;2.23;;
4821;SDS011;2425;47.794;13.068;2022-08-19T01:30:15;2.40;;;2.30;;
4821;SDS011;2425;47.794;13.068;2022-08-19T01:32:46;2.30;;;2.20;;
4821;SDS011;2425;47.794;13.068;2022-08-19T01:35:13;3.13;;;2.60;;
4821;SDS011;2425;47.794;13.068;2022-08-19T01:37:48;2.30;;;2.20;;
4821;SDS011;2425;47.794;13.068;2022-08-19T01:40:17;2.37;;;2.27;;
4821;SDS011;2425;47.794;13.068;2022-08-19T01:42:45;2.10;;;2.00;;
4821;SDS011;2425;47.794;13.068;2022-08-19T01:45:12;2.30;;;2.20;;
4821;SDS011;2425;47.794;13.068;2022-08-19T01:47:39;2.67;;;2.57;;
4821;SDS011;2425;47.794;13.068;2022-08-19T01:50:07;2.20;;;2.10;;
4821;SDS011;2425;47.794;13.068;2022-08-19T01:52:35;2.40;;;2.30;;
4821;SDS011;2425;47.794;13.068;2022-08-19T01:55:04;1.93;;;1.93;;
4821;SDS011;2425;47.794;13.068;2022-08-19T01:57:33;2.20;;;2.20;;
4821;SDS011;2425;47.794;13.068;2022-08-19T02:00:00;2.40;;;2.30;;
4821;SDS011;2425;47.794;13.068;2022-08-19T02:02:30;2.17;;;2.07;;
4821;SDS011;2425;47.794;13.068;2022-08-19T02:04:56;1.83;;;1.80;;
4821;SDS011;2425;47.794;13.068;2022-08-19T02:07:23;2.13;;;2.13;;
4821;SDS011;2425;47.794;13.068;2022-08-19T02:09:50;2.60;;;2.50;;
4821;SDS011;2425;47.794;13.068;2022-08-19T02:12:18;2.73;;;2.53;;
4821;SDS011;2425;47.794;13.068;2022-08-19T02:14:45;2.47;;;2.40;;
4821;SDS011;2425;47.794;13.068;2022-08-19T02:17:12;2.53;;;2.43;;
4821;SDS011;2425;47.794;13.068;2022-08-19T02:19:39;2.20;;;2.20;;
4821;SDS011;2425;47.794;13.068;2022-08-19T02:22:06;2.00;;;2.00;;
4821;SDS011;2425;47.794;13.068;2022-08-19T02:24:33;2.20;;;2.10;;
4821;SDS011;2425;47.794;13.068;2022-08-19T02:27:00;2.10;;;2.10;;
4821;SDS011;2425;47.794;13.068;2022-08-19T02:29:28;2.40;;;2.30;;
4821;SDS011;2425;47.794;13.068;2022-08-19T02:31:54;2.37;;;2.27;;
4821;SDS011;2425;47.794;13.068;2022-08-19T02:34:21;2.40;;;2.30;;
4821;SDS011;2425;47.794;13.068;2022-08-19T02:36:49;1.97;;;1.97;;
4821;SDS011;2425;47.794;13.068;2022-08-19T02:39:16;2.10;;;2.10;;
4821;SDS011;2425;47.794;13.068;2022-08-19T02:41:42;2.00;;;2.00;;
4821;SDS011;2425;47.794;13.068;2022-08-19T02:44:09;2.07;;;2.03;;
4821;SDS011;2425;47.794;13.068;2022-08-19T02:46:38;2.60;;;2.40;;
4821;SDS011;2425;47.794;13.068;2022-08-19T02:49:06;2.07;;;2.00;;
4821;SDS011;2425;47.794;13.068;2022-08-19T02:51:34;2.40;;;2.30;;
4821;SDS011;2425;47.794;13.068;2022-08-19T02:54:03;2.20;;;2.10;;
4821;SDS011;2425;47.794;13.068;2022-08-19T02:56:33;2.20;;;2.10;;
4821;SDS011;2425;47.794;13.068;2022-08-19T02:59:00;1.97;;;1.97;;
4821;SDS011;2425;47.794;13.068;2022-08-19T03:01:29;2.17;;;2.10;;
4821;SDS011;2425;47.794;13.068;2022-08-19T03:03:59;2.00;;;2.00;;
4821;SDS011;2425;47.794;13.068;2022-08-19T03:06:28;2.67;;;2.57;;
4821;SDS011;2425;47.794;13.068;2022-08-19T03:08:56;2.20;;;2.20;;
4821;SDS011;2425;47.794;13.068;2022-08-19T03:11:23;2.30;;;2.20;;
4821;SDS011;2425;47.794;13.068;2022-08-19T03:13:51;1.50;;;1.50;;
4821;SDS011;2425;47.794;13.068;2022-08-19T03:16:19;2.10;;;2.00;;
4821;SDS011;2425;47.794;13.068;2022-08-19T03:18:47;2.03;;;1.93;;
4821;SDS011;2425;47.794;13.068;2022-08-19T03:21:16;2.37;;;2.30;;
4821;SDS011;2425;47.794;13.068;2022-08-19T03:23:43;1.80;;;1.80;;
4821;SDS011;2425;47.794;13.068;2022-08-19T03:26:10;1.90;;;1.90;;
4821;SDS011;2425;47.794;13.068;2022-08-19T03:28:37;1.90;;;1.90;;
4821;SDS011;2425;47.794;13.068;2022-08-19T03:31:05;2.47;;;2.27;;
4821;SDS011;2425;47.794;13.068;2022-08-19T03:33:34;1.93;;;1.93;;
4821;SDS011;2425;47.794;13.068;2022-08-19T03:36:05;2.10;;;2.00;;
4821;SDS011;2425;47.794;13.068;2022-08-19T03:38:35;2.40;;;2.30;;
4821;SDS011;2425;47.794;13.068;2022-08-19T03:41:03;1.77;;;1.77;;
4821;SDS011;2425;47.794;13.068;2022-08-19T03:43:31;2.27;;;2.23;;
4821;SDS011;2425;47.794;13.068;2022-08-19T03:46:00;2.10;;;2.10;;
4821;SDS011;2425;47.794;13.068;2022-08-19T03:48:27;1.90;;;1.90;;
4821;SDS011;2425;47.794;13.068;2022-08-19T03:50:55;2.23;;;2.13;;
4821;SDS011;2425;47.794;13.068;2022-08-19T03:53:24;2.40;;;2.30;;
4821;SDS011;2425;47.794;13.068;2022-08-19T03:55:52;2.37;;;2.27;;
4821;SDS011;2425;47.794;13.068;2022-08-19T03:58:19;2.17;;;2.10;;
4821;SDS011;2425;47.794;13.068;2022-08-19T04:00:46;1.70;;;1.70;;
4821;SDS011;2425;47.794;13.068;2022-08-19T04:03:13;2.20;;;2.13;;
4821;SDS011;2425;47.794;13.068;2022-08-19T04:05:39;2.07;;;1.97;;
4821;SDS011;2425;47.794;13.068;2022-08-19T04:08:06;2.10;;;2.10;;
4821;SDS011;2425;47.794;13.068;2022-08-19T04:10:34;1.70;;;1.70;;
4821;SDS011;2425;47.794;13.068;2022-08-19T04:13:03;2.30;;;2.20;;
4821;SDS011;2425;47.794;13.068;2022-08-19T04:15:31;2.20;;;2.10;;
4821;SDS011;2425;47.794;13.068;2022-08-19T04:18:03;1.90;;;1.90;;
4821;SDS011;2425;47.794;13.068;2022-08-19T04:20:31;2.10;;;2.10;;
4821;SDS011;2425;47.794;13.068;2022-08-19T04:22:58;2.17;;;2.10;;
4821;SDS011;2425;47.794;13.068;2022-08-19T04:25:24;2.00;;;2.00;;
4821;SDS011;2425;47.794;13.068;2022-08-19T04:27:51;2.10;;;2.00;;
4821;SDS011;2425;47.794;13.068;2022-08-19T04:30:19;2.37;;;2.27;;
4821;SDS011;2425;47.794;13.068;2022-08-19T04:32:47;2.00;;;2.00;;
4821;SDS011;2425;47.794;13.068;2022-08-19T04:35:15;2.30;;;2.10;;
4821;SDS011;2425;47.794;13.068;2022-08-19T04:37:42;1.70;;;1.70;;
4821;SDS011;2425;47.794;13.068;2022-08-19T04:40:09;2.03;;;2.03;;
4821;SDS011;2425;47.794;13.068;2022-08-19T04:42:54;2.10;;;2.10;;
4821;SDS011;2425;47.794;13.068;2022-08-19T04:45:22;1.70;;;1.70;;
4821;SDS011;2425;47.794;13.068;2022-08-19T04:47:49;2.40;;;2.20;;
4821;SDS011;2425;47.794;13.068;2022-08-19T04:50:21;1.80;;;1.77;;
4821;SDS011;2425;47.794;13.068;2022-08-19T04:52:49;2.07;;;2.00;;
4821;SDS011;2425;47.794;13.068;2022-08-19T04:55:17;1.90;;;1.90;;
4821;SDS011;2425;47.794;13.068;2022-08-19T04:57:44;1.90;;;1.90;;
4821;SDS011;2425;47.794;13.068;2022-08-19T05:00:11;2.00;;;2.00;;
4821;SDS011;2425;47.794;13.068;2022-08-19T05:02:39;2.20;;;2.10;;
4821;SDS011;2425;47.794;13.068;2022-08-19T05:05:07;2.07;;;1.97;;
4821;SDS011;2425;47.794;13.068;2022-08-19T05:07:34;1.77;;;1.77;;
4821;SDS011;2425;47.794;13.068;2022-08-19T05:10:01;1.97;;;1.97;;
4821;SDS011;2425;47.794;13.068;2022-08-19T05:12:29;2.10;;;2.10;;
4821;SDS011;2425;47.794;13.068;2022-08-19T05:14:56;1.70;;;1.70;;
4821;SDS011;2425;47.794;13.068;2022-08-19T05:17:23;1.90;;;1.90;;
4821;SDS011;2425;47.794;13.068;2022-08-19T05:19:52;2.00;;;2.00;;
4821;SDS011;2425;47.794;13.068;2022-08-19T05:22:36;1.70;;;1.70;;
4821;SDS011;2425;47.794;13.068;2022-08-19T05:25:04;2.23;;;2.13;;
4821;SDS011;2425;47.794;13.068;2022-08-19T05:27:32;2.00;;;1.90;;
4821;SDS011;2425;47.794;13.068;2022-08-19T05:29:59;1.80;;;1.80;;
4821;SDS011;2425;47.794;13.068;2022-08-19T05:32:26;2.00;;;1.90;;
4821;SDS011;2425;47.794;13.068;2022-08-19T05:34:54;2.00;;;2.00;;
4821;SDS011;2425;47.794;13.068;2022-08-19T05:37:21;2.00;;;2.00;;
4821;SDS011;2425;47.794;13.068;2022-08-19T05:39:51;2.03;;;2.03;;
4821;SDS011;2425;47.794;13.068;2022-08-19T05:42:19;1.90;;;1.90;;
4821;SDS011;2425;47.794;13.068;2022-08-19T05:44:48;2.23;;;2.13;;
4821;SDS011;2425;47.794;13.068;2022-08-19T05:47:15;2.17;;;2.07;;
4821;SDS011;2425;47.794;13.068;2022-08-19T05:49:44;1.70;;;1.70;;
4821;SDS011;2425;47.794;13.068;2022-08-19T05:52:13;2.17;;;2.10;;
4821;SDS011;2425;47.794;13.068;2022-08-19T05:54:41;2.00;;;2.00;;
4821;SDS011;2425;47.794;13.068;2022-08-19T05:57:12;2.40;;;2.30;;
4821;SDS011;2425;47.794;13.068;2022-08-19T05:59:39;1.87;;;1.87;;
4821;SDS011;2425;47.794;13.068;2022-08-19T06:02:07;2.00;;;2.00;;
4821;SDS011;2425;47.794;13.068;2022-08-19T06:04:33;1.70;;;1.70;;
4821;SDS011;2425;47.794;13.068;2022-08-19T06:07:00;2.03;;;2.03;;
4821;SDS011;2425;47.794;13.068;2022-08-19T06:09:29;2.30;;;2.20;;
4821;SDS011;2425;47.794;13.068;2022-08-19T06:11:56;1.70;;;1.70;;
4821;SDS011;2425;47.794;13.068;2022-08-19T06:14:26;1.80;;;1.70;;
4821;SDS011;2425;47.794;13.068;2022-08-19T06:16:54;1.90;;;1.90;;
4821;SDS011;2425;47.794;13.068;2022-08-19T06:19:21;2.07;;;1.97;;
4821;SDS011;2425;47.794;13.068;2022-08-19T06:21:49;1.80;;;1.80;;
4821;SDS011;2425;47.794;13.068;2022-08-19T06:24:18;2.00;;;2.00;;
4821;SDS011;2425;47.794;13.068;2022-08-19T06:26:48;2.23;;;2.13;;
4821;SDS011;2425;47.794;13.068;2022-08-19T06:29:17;1.90;;;1.90;;
4821;SDS011;2425;47.794;13.068;2022-08-19T06:31:46;1.80;;;1.80;;
4821;SDS011;2425;47.794;13.068;2022-08-19T06:34:14;1.90;;;1.90;;
4821;SDS011;2425;47.794;13.068;2022-08-19T06:36:43;2.10;;;2.10;;
4821;SDS011;2425;47.794;13.068;2022-08-19T06:39:11;1.83;;;1.83;;
4821;SDS011;2425;47.794;13.068;2022-08-19T06:41:40;2.20;;;1.90;;
4821;SDS011;2425;47.794;13.068;2022-08-19T06:44:09;1.73;;;1.73;;
4821;SDS011;2425;47.794;13.068;2022-08-19T06:46:36;1.77;;;1.77;;
4821;SDS011;2425;47.794;13.068;2022-08-19T06:49:04;2.03;;;1.97;;
4821;SDS011;2425;47.794;13.068;2022-08-19T06:51:34;2.23;;;2.13;;
4821;SDS011;2425;47.794;13.068;2022-08-19T06:54:01;2.20;;;2.00;;
4821;SDS011;2425;47.794;13.068;2022-08-19T06:56:28;1.73;;;1.73;;
4821;SDS011;2425;47.794;13.068;2022-08-19T06:58:59;2.67;;;2.47;;
4821;SDS011;2425;47.794;13.068;2022-08-19T07:01:28;1.77;;;1.77;;
4821;SDS011;2425;47.794;13.068;2022-08-19T07:03:54;1.70;;;1.70;;
4821;SDS011;2425;47.794;13.068;2022-08-19T07:06:22;1.93;;;1.83;;
4821;SDS011;2425;47.794;13.068;2022-08-19T07:08:49;2.20;;;2.10;;
4821;SDS011;2425;47.794;13.068;2022-08-19T07:11:17;2.20;;;2.03;;
4821;SDS011;2425;47.794;13.068;2022-08-19T07:13:46;2.17;;;2.10;;
4821;SDS011;2425;47.794;13.068;2022-08-19T07:16:15;1.90;;;1.90;;
4821;SDS011;2425;47.794;13.068;2022-08-19T07:18:45;2.40;;;2.30;;
4821;SDS011;2425;47.794;13.068;2022-08-19T07:21:14;3.63;;;3.20;;
4821;SDS011;2425;47.794;13.068;2022-08-19T07:23:42;3.90;;;3.03;;
4821;SDS011;2425;47.794;13.068;2022-08-19T07:26:11;2.93;;;2.73;;
4821;SDS011;2425;47.794;13.068;2022-08-19T07:28:39;3.37;;;3.17;;
4821;SDS011;2425;47.794;13.068;2022-08-19T07:31:09;4.57;;;3.50;;
4821;SDS011;2425;47.794;13.068;2022-08-19T07:33:36;6.20;;;3.47;;
4821;SDS011;2425;47.794;13.068;2022-08-19T07:36:06;3.30;;;3.10;;
4821;SDS011;2425;47.794;13.068;2022-08-19T07:38:36;3.23;;;3.03;;
4821;SDS011;2425;47.794;13.068;2022-08-19T07:41:04;4.87;;;4.17;;
4821;SDS011;2425;47.794;13.068;2022-08-19T07:43:31;7.20;;;4.00;;
4821;SDS011;2425;47.794;13.068;2022-08-19T07:45:58;6.20;;;3.50;;
4821;SDS011;2425;47.794;13.068;2022-08-19T07:48:26;10.00;;;3.50;;
4821;SDS011;2425;47.794;13.068;2022-08-19T07:50:54;8.23;;;3.63;;
4821;SDS011;2425;47.794;13.068;2022-08-19T07:53:23;5.00;;;3.97;;
4821;SDS011;2425;47.794;13.068;2022-08-19T07:55:50;3.60;;;3.40;;
4821;SDS011;2425;47.794;13.068;2022-08-19T07:58:18;3.83;;;3.37;;
4821;SDS011;2425;47.794;13.068;2022-08-19T08:00:47;7.40;;;3.87;;
4821;SDS011;2425;47.794;13.068;2022-08-19T08:03:16;3.23;;;3.03;;
4821;SDS011;2425;47.794;13.068;2022-08-19T08:05:44;3.60;;;3.30;;
4821;SDS011;2425;47.794;13.068;2022-08-19T08:08:34;5.23;;;3.70;;
4821;SDS011;2425;47.794;13.068;2022-08-19T08:11:19;5.43;;;3.60;;
4821;SDS011;2425;47.794;13.068;2022-08-19T08:13:46;7.80;;;3.10;;
4821;SDS011;2425;47.794;13.068;2022-08-19T08:16:14;3.70;;;3.40;;
4821;SDS011;2425;47.794;13.068;2022-08-19T08:18:41;3.67;;;3.37;;
4821;SDS011;2425;47.794;13.068;2022-08-19T08:21:08;3.83;;;3.53;;
4821;SDS011;2425;47.794;13.068;2022-08-19T08:23:36;10.20;;;3.20;;
4821;SDS011;2425;47.794;13.068;2022-08-19T08:26:03;3.63;;;3.33;;
4821;SDS011;2425;47.794;13.068;2022-08-19T08:28:30;4.40;;;3.40;;
4821;SDS011;2425;47.794;13.068;2022-08-19T08:30:57;3.73;;;3.43;;
4821;SDS011;2425;47.794;13.068;2022-08-19T08:33:26;4.17;;;3.70;;
4821;SDS011;2425;47.794;13.068;2022-08-19T08:35:53;4.17;;;3.20;;
4821;SDS011;2425;47.794;13.068;2022-08-19T08:38:20;3.83;;;3.50;;
4821;SDS011;2425;47.794;13.068;2022-08-19T08:40:49;4.10;;;3.80;;
4821;SDS011;2425;47.794;13.068;2022-08-19T08:43:21;6.50;;;4.17;;
4821;SDS011;2425;47.794;13.068;2022-08-19T08:45:52;4.30;;;3.93;;
4821;SDS011;2425;47.794;13.068;2022-08-19T08:48:24;7.00;;;3.80;;
4821;SDS011;2425;47.794;13.068;2022-08-19T08:50:57;5.00;;;3.53;;
4821;SDS011;2425;47.794;13.068;2022-08-19T08:53:25;4.53;;;4.13;;
4821;SDS011;2425;47.794;13.068;2022-08-19T08:55:54;4.73;;;4.00;;
4821;SDS011;2425;47.794;13.068;2022-08-19T08:58:24;6.77;;;3.70;;
4821;SDS011;2425;47.794;13.068;2022-08-19T09:00:53;3.67;;;3.47;;
4821;SDS011;2425;47.794;13.068;2022-08-19T09:03:25;4.63;;;3.57;;
4821;SDS011;2425;47.794;13.068;2022-08-19T09:05:55;3.93;;;3.63;;
4821;SDS011;2425;47.794;13.068;2022-08-19T09:08:28;4.70;;;4.10;;
4821;SDS011;2425;47.794;13.068;2022-08-19T09:11:05;8.00;;;3.80;;
4821;SDS011;2425;47.794;13.068;2022-08-19T09:13:36;4.00;;;3.70;;
4821;SDS011;2425;47.794;13.068;2022-08-19T09:16:10;3.97;;;3.67;;
4821;SDS011;2425;47.794;13.068;2022-08-19T09:18:40;4.37;;;3.97;;
4821;SDS011;2425;47.794;13.068;2022-08-19T09:21:08;4.90;;;3.80;;
4821;SDS011;2425;47.794;13.068;2022-08-19T09:23:35;4.67;;;3.93;;
4821;SDS011;2425;47.794;13.068;2022-08-19T09:26:07;3.47;;;3.20;;
4821;SDS011;2425;47.794;13.068;2022-08-19T09:28:35;4.03;;;3.40;;
4821;SDS011;2425;47.794;13.068;2022-08-19T09:31:02;5.80;;;3.80;;
4821;SDS011;2425;47.794;13.068;2022-08-19T09:33:29;3.77;;;3.47;;
4821;SDS011;2425;47.794;13.068;2022-08-19T09:36:08;4.80;;;3.27;;
4821;SDS011;2425;47.794;13.068;2022-08-19T09:38:36;4.03;;;3.30;;
4821;SDS011;2425;47.794;13.068;2022-08-19T09:41:07;3.57;;;3.30;;
4821;SDS011;2425;47.794;13.068;2022-08-19T09:43:36;4.30;;;3.30;;
4821;SDS011;2425;47.794;13.068;2022-08-19T09:46:03;3.80;;;3.50;;
4821;SDS011;2425;47.794;13.068;2022-08-19T09:48:31;3.77;;;3.47;;
4821;SDS011;2425;47.794;13.068;2022-08-19T09:51:02;3.43;;;3.13;;
4821;SDS011;2425;47.794;13.068;2022-08-19T09:53:30;4.03;;;3.33;;
4821;SDS011;2425;47.794;13.068;2022-08-19T09:55:57;4.87;;;3.10;;
4821;SDS011;2425;47.794;13.068;2022-08-19T09:58:25;4.03;;;3.70;;
4821;SDS011;2425;47.794;13.068;2022-08-19T10:00:53;5.10;;;3.40;;
4821;SDS011;2425;47.794;13.068;2022-08-19T10:03:20;4.17;;;3.77;;
4821;SDS011;2425;47.794;13.068;2022-08-19T10:05:46;3.53;;;3.33;;
4821;SDS011;2425;47.794;13.068;2022-08-19T10:08:17;3.30;;;3.10;;
4821;SDS011;2425;47.794;13.068;2022-08-19T10:10:45;3.20;;;3.00;;
4821;SDS011;2425;47.794;13.068;2022-08-19T10:13:13;3.90;;;3.53;;
4821;SDS011;2425;47.794;13.068;2022-08-19T10:15:43;3.37;;;3.23;;
4821;SDS011;2425;47.794;13.068;2022-08-19T10:18:10;3.83;;;3.33;;
4821;SDS011;2425;47.794;13.068;2022-08-19T10:20:37;6.77;;;3.17;;
4821;SDS011;2425;47.794;13.068;2022-08-19T10:23:04;3.67;;;3.30;;
4821;SDS011;2425;47.794;13.068;2022-08-19T10:25:31;2.90;;;2.70;;
4821;SDS011;2425;47.794;13.068;2022-08-19T10:28:00;4.53;;;3.30;;
4821;SDS011;2425;47.794;13.068;2022-08-19T10:30:27;3.97;;;3.50;;
4821;SDS011;2425;47.794;13.068;2022-08-19T10:32:55;3.23;;;3.03;;
4821;SDS011;2425;47.794;13.068;2022-08-19T10:35:22;2.80;;;2.60;;
4821;SDS011;2425;47.794;13.068;2022-08-19T10:37:51;3.60;;;3.40;;
4821;SDS011;2425;47.794;13.068;2022-08-19T10:40:18;3.77;;;3.47;;
4821;SDS011;2425;47.794;13.068;2022-08-19T10:42:45;2.87;;;2.67;;
4821;SDS011;2425;47.794;13.068;2022-08-19T10:45:12;3.23;;;3.00;;
4821;SDS011;2425;47.794;13.068;2022-08-19T10:47:38;3.47;;;2.80;;
4821;SDS011;2425;47.794;13.068;2022-08-19T10:50:07;3.30;;;3.10;;
4821;SDS011;2425;47.794;13.068;2022-08-19T10:52:51;3.43;;;3.13;;
4821;SDS011;2425;47.794;13.068;2022-08-19T10:55:18;3.70;;;3.03;;
4821;SDS011;2425;47.794;13.068;2022-08-19T10:58:09;3.00;;;2.83;;
4821;SDS011;2425;47.794;13.068;2022-08-19T11:00:37;3.40;;;3.10;;
4821;SDS011;2425;47.794;13.068;2022-08-19T11:03:05;2.77;;;2.67;;
4821;SDS011;2425;47.794;13.068;2022-08-19T11:05:33;4.40;;;2.83;;
4821;SDS011;2425;47.794;13.068;2022-08-19T11:08:00;8.90;;;3.30;;
4821;SDS011;2425;47.794;13.068;2022-08-19T11:10:27;3.60;;;3.40;;
4821;SDS011;2425;47.794;13.068;2022-08-19T11:12:54;6.63;;;3.07;;
4821;SDS011;2425;47.794;13.068;2022-08-19T11:15:20;3.17;;;2.87;;
4821;SDS011;2425;47.794;13.068;2022-08-19T11:17:48;3.03;;;2.83;;
4821;SDS011;2425;47.794;13.068;2022-08-19T11:20:17;2.90;;;2.80;;
4821;SDS011;2425;47.794;13.068;2022-08-19T11:22:45;3.23;;;2.93;;
4821;SDS011;2425;47.794;13.068;2022-08-19T11:25:12;6.07;;;2.70;;
4821;SDS011;2425;47.794;13.068;2022-08-19T11:27:39;2.93;;;2.70;;
4821;SDS011;2425;47.794;13.068;2022-08-19T11:30:08;2.57;;;2.47;;
4821;SDS011;2425;47.794;13.068;2022-08-19T11:32:36;3.00;;;2.90;;
4821;SDS011;2425;47.794;13.068;2022-08-19T11:35:03;3.07;;;2.87;;
4821;SDS011;2425;47.794;13.068;2022-08-19T11:37:30;3.80;;;3.20;;
4821;SDS011;2425;47.794;13.068;2022-08-19T11:40:04;3.00;;;2.80;;
4821;SDS011;2425;47.794;13.068;2022-08-19T11:42:31;2.80;;;2.70;;
4821;SDS011;2425;47.794;13.068;2022-08-19T11:45:15;2.80;;;2.70;;
4821;SDS011;2425;47.794;13.068;2022-08-19T11:47:42;3.27;;;3.07;;
4821;SDS011;2425;47.794;13.068;2022-08-19T11:50:11;2.70;;;2.60;;
4821;SDS011;2425;47.794;13.068;2022-08-19T11:52:38;3.83;;;3.27;;
4821;SDS011;2425;47.794;13.068;2022-08-19T11:55:07;3.07;;;2.87;;
4821;SDS011;2425;47.794;13.068;2022-08-19T11:57:34;2.67;;;2.57;;
4821;SDS011;2425;47.794;13.068;2022-08-19T12:00:02;3.77;;;3.27;;
4821;SDS011;2425;47.794;13.068;2022-08-19T12:02:31;5.30;;;2.90;;
4821;SDS011;2425;47.794;13.068;2022-08-19T12:04:58;3.00;;;2.90;;
4821;SDS011;2425;47.794;13.068;2022-08-19T12:07:28;3.20;;;2.90;;
4821;SDS011;2425;47.794;13.068;2022-08-19T12:09:56;3.07;;;2.90;;
4821;SDS011;2425;47.794;13.068;2022-08-19T12:12:24;3.20;;;3.03;;
4821;SDS011;2425;47.794;13.068;2022-08-19T12:14:52;2.90;;;2.70;;
4821;SDS011;2425;47.794;13.068;2022-08-19T12:17:21;11.30;;;3.00;;
4821;SDS011;2425;47.794;13.068;2022-08-19T12:19:48;2.97;;;2.87;;
4821;SDS011;2425;47.794;13.068;2022-08-19T12:22:15;3.00;;;2.80;;
4821;SDS011;2425;47.794;13.068;2022-08-19T12:24:42;3.00;;;2.57;;
4821;SDS011;2425;47.794;13.068;2022-08-19T12:27:09;3.03;;;2.83;;
4821;SDS011;2425;47.794;13.068;2022-08-19T12:29:37;3.70;;;3.40;;
4821;SDS011;2425;47.794;13.068;2022-08-19T12:32:04;3.07;;;2.87;;
4821;SDS011;2425;47.794;13.068;2022-08-19T12:34:31;3.00;;;2.80;;
4821;SDS011;2425;47.794;13.068;2022-08-19T12:36:58;3.60;;;3.40;;
4821;SDS011;2425;47.794;13.068;2022-08-19T12:39:28;3.20;;;3.00;;
4821;SDS011;2425;47.794;13.068;2022-08-19T12:41:56;3.23;;;3.13;;
4821;SDS011;2425;47.794;13.068;2022-08-19T12:44:23;3.23;;;3.10;;
4821;SDS011;2425;47.794;13.068;2022-08-19T12:46:51;3.30;;;3.00;;
4821;SDS011;2425;47.794;13.068;2022-08-19T12:49:18;2.80;;;2.60;;
4821;SDS011;2425;47.794;13.068;2022-08-19T12:51:44;3.13;;;2.93;;
4821;SDS011;2425;47.794;13.068;2022-08-19T12:54:11;3.23;;;3.03;;
4821;SDS011;2425;47.794;13.068;2022-08-19T12:56:38;3.03;;;2.83;;
4821;SDS011;2425;47.794;13.068;2022-08-19T12:59:06;11.23;;;3.90;;
4821;SDS011;2425;47.794;13.068;2022-08-19T13:01:33;3.90;;;3.60;;
4821;SDS011;2425;47.794;13.068;2022-08-19T13:04:02;4.10;;;3.67;;
4821;SDS011;2425;47.794;13.068;2022-08-19T13:06:29;3.50;;;3.30;;
4821;SDS011;2425;47.794;13.068;2022-08-19T13:08:56;6.97;;;3.53;;
4821;SDS011;2425;47.794;13.068;2022-08-19T13:11:23;3.73;;;3.53;;
4821;SDS011;2425;47.794;13.068;2022-08-19T13:13:51;3.43;;;3.33;;
4821;SDS011;2425;47.794;13.068;2022-08-19T13:16:20;8.90;;;3.43;;
4821;SDS011;2425;47.794;13.068;2022-08-19T13:18:47;3.80;;;3.17;;
4821;SDS011;2425;47.794;13.068;2022-08-19T13:21:18;6.10;;;3.73;;
4821;SDS011;2425;47.794;13.068;2022-08-19T13:23:46;4.47;;;4.00;;
4821;SDS011;2425;47.794;13.068;2022-08-19T13:26:13;10.20;;;4.00;;
4821;SDS011;2425;47.794;13.068;2022-08-19T13:28:40;5.43;;;3.10;;
4821;SDS011;2425;47.794;13.068;2022-08-19T13:31:26;3.53;;;3.37;;
4821;SDS011;2425;47.794;13.068;2022-08-19T13:34:14;3.83;;;3.63;;
4821;SDS011;2425;47.794;13.068;2022-08-19T13:36:43;3.03;;;2.93;;
4821;SDS011;2425;47.794;13.068;2022-08-19T13:39:10;3.30;;;3.17;;
4821;SDS011;2425;47.794;13.068;2022-08-19T13:41:42;3.67;;;3.40;;
4821;SDS011;2425;47.794;13.068;2022-08-19T13:44:12;3.40;;;3.30;;
4821;SDS011;2425;47.794;13.068;2022-08-19T13:46:39;3.50;;;3.37;;
4821;SDS011;2425;47.794;13.068;2022-08-19T13:49:09;3.63;;;3.43;;
4821;SDS011;2425;47.794;13.068;2022-08-19T13:51:37;3.80;;;3.60;;
4821;SDS011;2425;47.794;13.068;2022-08-19T13:54:05;4.90;;;3.37;;
4821;SDS011;2425;47.794;13.068;2022-08-19T13:56:33;3.50;;;3.30;;
4821;SDS011;2425;47.794;13.068;2022-08-19T13:59:01;4.30;;;3.93;;
4821;SDS011;2425;47.794;13.068;2022-08-19T14:01:28;4.43;;;3.63;;
4821;SDS011;2425;47.794;13.068;2022-08-19T14:03:55;8.73;;;3.70;;
4821;SDS011;2425;47.794;13.068;2022-08-19T14:06:22;3.40;;;2.93;;
4821;SDS011;2425;47.794;13.068;2022-08-19T14:08:50;3.40;;;3.20;;
4821;SDS011;2425;47.794;13.068;2022-08-19T14:11:19;3.50;;;3.30;;
4821;SDS011;2425;47.794;13.068;2022-08-19T14:13:47;3.40;;;3.30;;
4821;SDS011;2425;47.794;13.068;2022-08-19T14:16:14;4.93;;;3.97;;
4821;SDS011;2425;47.794;13.068;2022-08-19T14:18:42;4.10;;;3.10;;
4821;SDS011;2425;47.794;13.068;2022-08-19T14:21:14;6.03;;;3.40;;
4821;SDS011;2425;47.794;13.068;2022-08-19T14:23:42;5.60;;;3.70;;
4821;SDS011;2425;47.794;13.068;2022-08-19T14:26:09;3.50;;;3.20;;
4821;SDS011;2425;47.794;13.068;2022-08-19T14:28:39;3.30;;;3.13;;
4821;SDS011;2425;47.794;13.068;2022-08-19T14:31:06;6.03;;;2.90;;
4821;SDS011;2425;47.794;13.068;2022-08-19T14:33:34;11.67;;;3.43;;
4821;SDS011;2425;47.794;13.068;2022-08-19T14:36:00;3.77;;;3.57;;
4821;SDS011;2425;47.794;13.068;2022-08-19T14:38:27;3.80;;;3.50;;
4821;SDS011;2425;47.794;13.068;2022-08-19T14:41:04;6.37;;;3.20;;
4821;SDS011;2425;47.794;13.068;2022-08-19T14:43:35;3.10;;;2.90;;
4821;SDS011;2425;47.794;13.068;2022-08-19T14:46:04;3.23;;;3.03;;
4821;SDS011;2425;47.794;13.068;2022-08-19T14:48:33;3.60;;;3.37;;
4821;SDS011;2425;47.794;13.068;2022-08-19T14:51:01;3.70;;;3.50;;
4821;SDS011;2425;47.794;13.068;2022-08-19T14:53:28;3.43;;;3.23;;
4821;SDS011;2425;47.794;13.068;2022-08-19T14:55:54;3.80;;;3.50;;
4821;SDS011;2425;47.794;13.068;2022-08-19T14:58:21;3.57;;;3.37;;
4821;SDS011;2425;47.794;13.068;2022-08-19T15:00:48;4.93;;;3.60;;
4821;SDS011;2425;47.794;13.068;2022-08-19T15:03:16;3.27;;;3.13;;
4821;SDS011;2425;47.794;13.068;2022-08-19T15:05:43;4.10;;;3.60;;
4821;SDS011;2425;47.794;13.068;2022-08-19T15:08:10;3.97;;;3.77;;